CheckWX is a tool to help pilots better visualize weather data.  It is not intended as a substitute for an official pre-flight weather briefing.

09:29:28 UTC

LHBP METAR
Budapest Ferenc Liszt International Airport
Budapest, Hungary
Current

29 mins ago

LHBP 070900Z 11003KT 050V120 0400 R31L/0600N R31R/0700N FZFG VV002 M00/M00 Q1018 NOSIG
Observed
Dec-7 @ 09:00 UTC
Wind
  • 110° at 3 KTS
Visibility
400 meters
Flight Rules
LIFR
Conditions
Freezing Fog
Cloud Levels
  • Vertical visibility at 200' AGL
Temperature
C / 32°F
Dewpoint
C / 32°F
Humidity
100%
Altimeter
30.06" Hg
Pressure
1017.92 hPa
Previous

59 mins ago

LHBP 070830Z 11003KT 060V120 0500 R31L/0700N R31R/0800N FZFG VV002 M00/M00 Q1018 NOSIG
Observed
Dec-7 @ 08:30 UTC
Wind
  • 110° at 3 KTS
Visibility
500 meters
Flight Rules
LIFR
Conditions
Freezing Fog
Cloud Levels
  • Vertical visibility at 200' AGL
Temperature
C / 32°F
Dewpoint
C / 32°F
Humidity
100%
Altimeter
30.06" Hg
Pressure
1017.92 hPa
Previous

1 hour ago

LHBP 070800Z VRB02KT 0500 R13R/0750N R13L/0750N -FZDZ FZFG VV002 M00/M01 Q1018 NOSIG
Observed
Dec-7 @ 08:00 UTC
Wind
  • Variable at 2 KTS
Visibility
500 meters
Flight Rules
LIFR
Conditions
Light Freezing Light Drizzle, Freezing Fog
Cloud Levels
  • Vertical visibility at 200' AGL
Temperature
C / 32°F
Dewpoint
-1°C / 30°F
Humidity
93%
Altimeter
30.06" Hg
Pressure
1017.92 hPa